createdAt,value
2018-09-24T00:00:16.338Z,73.99
2018-09-24T00:01:14.849Z,73.83
2018-09-24T00:02:14.789Z,74.4
2018-09-24T00:03:14.641Z,73.98
2018-09-24T00:04:14.828Z,73.84
2018-09-24T00:05:14.859Z,73.94
2018-09-24T00:06:15.023Z,74.35
2018-09-24T00:07:14.789Z,74.28
2018-09-24T00:08:14.810Z,74.12
2018-09-24T00:09:15.346Z,74.61
2018-09-24T00:10:14.811Z,74.06
2018-09-24T00:11:14.666Z,74.45
2018-09-24T00:12:14.824Z,74.31
2018-09-24T00:13:15.086Z,74.39
2018-09-24T00:14:14.926Z,74.61
2018-09-24T00:15:14.655Z,74.98
2018-09-24T00:16:14.781Z,74.55
2018-09-24T00:17:14.808Z,74
2018-09-24T00:18:14.794Z,74.18
2018-09-24T00:19:14.847Z,73.64
2018-09-24T00:20:14.777Z,74.05
2018-09-24T00:21:14.756Z,73.91
2018-09-24T00:22:14.837Z,73.77
2018-09-24T00:23:14.628Z,73.96
2018-09-24T00:24:14.867Z,73.57
2018-09-24T00:25:14.803Z,73.56
2018-09-24T00:26:14.932Z,73.26
2018-09-24T00:27:14.788Z,73.13
2018-09-24T00:28:14.778Z,73.27
2018-09-24T00:29:14.830Z,73.32
2018-09-24T00:30:14.996Z,73.2
2018-09-24T00:31:14.808Z,73.8
2018-09-24T00:32:14.743Z,73.74
2018-09-24T00:33:14.754Z,73.49
2018-09-24T00:34:14.592Z,74.12
2018-09-24T00:35:14.614Z,73.47
2018-09-24T00:36:14.600Z,73.41
2018-09-24T00:37:14.605Z,73.67
2018-09-24T00:38:14.595Z,73.98
2018-09-24T00:39:14.741Z,73.46
2018-09-24T00:40:14.621Z,74.09
2018-09-24T00:41:14.621Z,73.82
2018-09-24T00:42:14.785Z,73.91
2018-09-24T00:43:14.960Z,73.68
2018-09-24T00:44:14.864Z,73.79
2018-09-24T00:45:14.770Z,73.96
2018-09-24T00:46:14.771Z,74.11
2018-09-24T00:47:14.665Z,74.13
2018-09-24T00:48:14.589Z,73.91
2018-09-24T00:49:14.828Z,74.01
2018-09-24T00:50:14.632Z,73.74
2018-09-24T00:51:14.740Z,74.11
2018-09-24T00:52:14.774Z,74.17
2018-09-24T00:53:14.895Z,73.75
2018-09-24T00:54:14.729Z,73.87
2018-09-24T00:55:14.956Z,73.59
2018-09-24T00:56:14.787Z,73.8
2018-09-24T00:57:14.768Z,73.9
2018-09-24T00:58:14.565Z,73.97
2018-09-24T00:59:14.544Z,73.91
2018-09-24T01:00:14.598Z,74.14
2018-09-24T01:01:15.323Z,74.21
2018-09-24T01:02:14.804Z,74.38
2018-09-24T01:03:14.586Z,73.42
2018-09-24T01:04:14.746Z,73.28
2018-09-24T01:05:14.808Z,73.58
2018-09-24T01:06:14.799Z,73.53
2018-09-24T01:07:14.813Z,73.61
2018-09-24T01:08:14.631Z,73.11
2018-09-24T01:09:14.835Z,73.19
2018-09-24T01:10:14.732Z,73.31
2018-09-24T01:11:14.627Z,73.44
2018-09-24T01:12:14.562Z,73.63
2018-09-24T01:13:14.734Z,73.09
2018-09-24T01:14:14.550Z,73.51
2018-09-24T01:15:14.470Z,73.78
2018-09-24T01:16:14.706Z,74.19
2018-09-24T01:17:14.791Z,74.32
2018-09-24T01:18:14.725Z,74.49
2018-09-24T01:19:14.659Z,73.85
2018-09-24T01:20:14.896Z,74.23
2018-09-24T01:21:14.619Z,74.34
2018-09-24T01:22:15.022Z,73.62
2018-09-24T01:23:15.264Z,73.69
2018-09-24T01:24:14.588Z,73.93
2018-09-24T01:25:14.561Z,74.44
2018-09-24T01:26:15.108Z,74.57
2018-09-24T01:27:14.748Z,74.28
2018-09-24T01:28:14.742Z,74.24
2018-09-24T01:29:14.689Z,73.95
2018-09-24T01:30:14.698Z,73.64
2018-09-24T01:31:14.736Z,73.86
2018-09-24T01:32:14.686Z,74.01
2018-09-24T01:33:14.848Z,74.11
2018-09-24T01:34:14.551Z,73.81
2018-09-24T01:35:14.630Z,73.86
2018-09-24T01:36:14.740Z,74.11
2018-09-24T01:37:14.866Z,74.14
2018-09-24T01:38:14.847Z,74.12
2018-09-24T01:39:14.704Z,74.29
2018-09-24T01:40:14.799Z,74.54
2018-09-24T01:41:14.811Z,74.27
2018-09-24T01:42:14.747Z,74.05
2018-09-24T01:43:14.660Z,74.18
2018-09-24T01:44:14.521Z,74.62
2018-09-24T01:45:14.604Z,74.78
2018-09-24T01:46:14.684Z,74.76
2018-09-24T01:47:14.497Z,74.77
2018-09-24T01:48:14.715Z,74.87
2018-09-24T01:49:14.729Z,74.79
2018-09-24T01:50:14.472Z,75.09
2018-09-24T01:51:15.046Z,74.84
2018-09-24T01:52:14.648Z,74.95
2018-09-24T01:53:14.517Z,74.77
2018-09-24T01:54:14.667Z,74.66
2018-09-24T01:55:14.703Z,74.92
2018-09-24T01:56:14.651Z,74.8
2018-09-24T01:57:14.656Z,75.17
2018-09-24T01:58:14.624Z,74.88
2018-09-24T01:59:14.497Z,75.47
2018-09-24T02:00:14.536Z,75.18
2018-09-24T02:01:14.554Z,75.75
2018-09-24T02:02:14.467Z,76.18
2018-09-24T02:03:14.685Z,75.89
2018-09-24T02:04:14.635Z,75.98
2018-09-24T02:05:14.717Z,76.04
2018-09-24T02:06:14.782Z,75.72
2018-09-24T02:07:14.553Z,76.51
2018-09-24T02:08:14.570Z,76.96
2018-09-24T02:09:14.555Z,76.23
2018-09-24T02:10:14.519Z,76.33
2018-09-24T02:11:14.687Z,76.57
2018-09-24T02:12:14.769Z,76.29
2018-09-24T02:13:14.684Z,76.4
2018-09-24T02:14:14.639Z,75.9
2018-09-24T02:15:14.813Z,75.5
2018-09-24T02:16:14.719Z,75.82
2018-09-24T02:17:14.719Z,75.58
2018-09-24T02:18:14.805Z,76.34
2018-09-24T02:19:14.603Z,76.05
2018-09-24T02:20:14.708Z,75.91
2018-09-24T02:21:14.694Z,75.49
2018-09-24T02:22:14.449Z,75.47
2018-09-24T02:23:14.479Z,75.66
2018-09-24T02:24:14.579Z,75.74
2018-09-24T02:25:14.553Z,75.99
2018-09-24T02:26:14.716Z,76.32
2018-09-24T02:27:14.694Z,76.28
2018-09-24T02:28:14.622Z,76.63
2018-09-24T02:29:14.916Z,76.25
2018-09-24T02:30:14.727Z,76.08
2018-09-24T02:31:14.591Z,76.31
2018-09-24T02:32:14.588Z,76.23
2018-09-24T02:33:14.654Z,76.11
2018-09-24T02:34:14.653Z,76.2
2018-09-24T02:35:14.588Z,76.12
2018-09-24T02:36:14.651Z,76.25
2018-09-24T02:37:14.502Z,76.35
2018-09-24T02:38:14.569Z,76.1
2018-09-24T02:39:14.444Z,75.62
2018-09-24T02:40:14.584Z,75.39
2018-09-24T02:41:14.667Z,75.58
2018-09-24T02:42:14.787Z,75.8
2018-09-24T02:43:15.080Z,75.86
2018-09-24T02:44:14.480Z,75.81
2018-09-24T02:45:14.629Z,76.04
2018-09-24T02:46:14.807Z,75.97
2018-09-24T02:47:14.559Z,75.83
2018-09-24T02:48:14.571Z,76.35
2018-09-24T02:49:14.556Z,76.45
2018-09-24T02:50:14.431Z,76.43
2018-09-24T02:51:14.600Z,75.79
2018-09-24T02:52:14.676Z,75.86
2018-09-24T02:53:14.428Z,76.47
2018-09-24T02:54:14.519Z,76.67
2018-09-24T02:55:14.575Z,76.88
2018-09-24T02:56:14.639Z,76.35
2018-09-24T02:57:14.616Z,76.14
2018-09-24T02:58:14.582Z,76.02
2018-09-24T02:59:14.424Z,76.08
2018-09-24T03:00:14.447Z,75.84
2018-09-24T03:01:14.859Z,75.87
2018-09-24T03:02:14.652Z,76.19
2018-09-24T03:03:14.432Z,76.2
2018-09-24T03:04:14.612Z,75.95
2018-09-24T03:05:14.591Z,75.83
2018-09-24T03:06:14.574Z,76
2018-09-24T03:07:14.592Z,76.04
2018-09-24T03:08:14.573Z,76.58
2018-09-24T03:09:14.665Z,76.68
2018-09-24T03:10:14.665Z,76.58
2018-09-24T03:11:14.467Z,76.31
2018-09-24T03:12:14.579Z,76.67
2018-09-24T03:13:14.380Z,76.84
2018-09-24T03:14:14.383Z,76.95
2018-09-24T03:15:14.536Z,76.85
2018-09-24T03:16:14.393Z,76.76
2018-09-24T03:17:14.501Z,77.16
2018-09-24T03:18:14.524Z,77
2018-09-24T03:19:14.557Z,77.11
2018-09-24T03:20:14.603Z,77.46
2018-09-24T03:21:14.774Z,77.5
2018-09-24T03:22:14.380Z,77.29
2018-09-24T03:23:14.523Z,77.13
2018-09-24T03:24:14.417Z,77.13
2018-09-24T03:25:14.491Z,76.81
2018-09-24T03:26:14.966Z,76.6
2018-09-24T03:27:14.341Z,76.51
2018-09-24T03:28:14.534Z,76.66
2018-09-24T03:29:14.408Z,77.03
2018-09-24T03:30:14.420Z,76.65
2018-09-24T03:31:14.380Z,77.21
2018-09-24T03:32:14.519Z,77.1
2018-09-24T03:33:14.516Z,77.36
2018-09-24T03:34:14.391Z,77.08
2018-09-24T03:35:14.348Z,77.07
2018-09-24T03:36:14.569Z,77.39
2018-09-24T03:37:14.550Z,77.67
2018-09-24T03:38:14.554Z,77.15
2018-09-24T03:39:14.555Z,77.43
2018-09-24T03:40:14.873Z,77.19
2018-09-24T03:41:14.588Z,78.11
2018-09-24T03:42:14.572Z,77.59
2018-09-24T03:43:14.413Z,77.43
2018-09-24T03:44:14.583Z,77.66
2018-09-24T03:45:14.469Z,77.8
2018-09-24T03:46:14.362Z,77.87
2018-09-24T03:47:14.417Z,77.7
2018-09-24T03:48:14.448Z,76.91
2018-09-24T03:49:14.487Z,76.89
2018-09-24T03:50:14.680Z,77.16
2018-09-24T03:51:14.300Z,77.52
2018-09-24T03:52:14.584Z,77.28
2018-09-24T03:53:14.486Z,77.52
2018-09-24T03:54:14.575Z,77.79
2018-09-24T03:55:14.517Z,77.2
2018-09-24T03:56:14.543Z,77.16
2018-09-24T03:57:14.592Z,77.49
2018-09-24T03:58:14.692Z,77.45
2018-09-24T03:59:14.636Z,77.26
2018-09-24T04:00:14.536Z,77.49
2018-09-24T04:01:14.368Z,77.43
2018-09-24T04:02:14.483Z,77.55
2018-09-24T04:03:14.400Z,77.49
2018-09-24T04:04:14.598Z,77.47
2018-09-24T04:05:14.496Z,77.35
2018-09-24T04:06:14.493Z,76.92
2018-09-24T04:07:14.401Z,76.75
2018-09-24T04:08:14.650Z,76.6
2018-09-24T04:09:14.476Z,76.95
2018-09-24T04:10:14.944Z,77
2018-09-24T04:11:14.650Z,76.68
2018-09-24T04:12:14.496Z,77.2
2018-09-24T04:13:14.319Z,77.69
2018-09-24T04:14:14.535Z,77.62
2018-09-24T04:15:14.470Z,77.66
2018-09-24T04:16:14.661Z,77.58
2018-09-24T04:17:14.482Z,77.74
2018-09-24T04:18:14.416Z,77.78
2018-09-24T04:19:14.446Z,77.68
2018-09-24T04:20:14.687Z,77.77
2018-09-24T04:21:14.440Z,77.77
2018-09-24T04:22:14.279Z,77.66
2018-09-24T04:23:14.356Z,77.4
2018-09-24T04:24:14.899Z,77.36
2018-09-24T04:25:14.526Z,77.77
2018-09-24T04:26:14.912Z,77.64
2018-09-24T04:27:14.500Z,78.11
2018-09-24T04:28:14.538Z,78.03
2018-09-24T04:29:14.481Z,77.95
2018-09-24T04:30:14.519Z,78.17
2018-09-24T04:31:14.321Z,78.2
2018-09-24T04:32:14.446Z,78.04
2018-09-24T04:33:14.383Z,78.38
2018-09-24T04:34:14.376Z,78.36
2018-09-24T04:35:14.282Z,78.21
2018-09-24T04:36:14.433Z,78.34
2018-09-24T04:37:14.529Z,78.24
2018-09-24T04:38:14.437Z,78.45
2018-09-24T04:39:14.483Z,78.29
2018-09-24T04:40:14.302Z,78.18
2018-09-24T04:41:14.403Z,77.99
2018-09-24T04:42:14.722Z,78.31
2018-09-24T04:43:14.688Z,78.53
2018-09-24T04:44:14.460Z,78.29
2018-09-24T04:45:14.405Z,78.14
2018-09-24T04:46:14.249Z,78.33
2018-09-24T04:47:14.249Z,78.53
2018-09-24T04:48:14.236Z,78.46
2018-09-24T04:49:14.609Z,78.41
2018-09-24T04:50:14.247Z,78.25
2018-09-24T04:51:14.425Z,78.21
2018-09-24T04:52:14.402Z,78.42
2018-09-24T04:53:14.418Z,78.39
2018-09-24T04:54:14.400Z,78.14
2018-09-24T04:55:14.417Z,77.99
2018-09-24T04:56:14.389Z,78.19
2018-09-24T04:57:14.474Z,77.97
2018-09-24T04:58:14.429Z,78
2018-09-24T04:59:14.431Z,78.41
2018-09-24T05:00:14.461Z,78.14
2018-09-24T05:01:14.363Z,78.53
2018-09-24T05:02:14.386Z,78.48
2018-09-24T05:03:14.579Z,78.47
2018-09-24T05:04:14.799Z,78.55
2018-09-24T05:05:14.378Z,78.36
2018-09-24T05:06:14.425Z,78.3
2018-09-24T05:07:14.225Z,78.64
2018-09-24T05:08:14.375Z,78.66
2018-09-24T05:09:14.385Z,78.66
2018-09-24T05:10:14.550Z,78.44
2018-09-24T05:11:14.244Z,78.26
2018-09-24T05:12:14.217Z,78.31
2018-09-24T05:13:14.454Z,78.64
2018-09-24T05:14:14.452Z,78.79
2018-09-24T05:15:14.439Z,78.96
2018-09-24T05:16:14.876Z,78.7
2018-09-24T05:17:14.366Z,78.59
2018-09-24T05:18:14.411Z,78.72
2018-09-24T05:19:14.418Z,78.91
2018-09-24T05:20:14.989Z,78.79
2018-09-24T05:21:14.263Z,78.72
2018-09-24T05:22:14.376Z,78.56
2018-09-24T05:23:14.482Z,78.57
2018-09-24T05:24:14.302Z,78.31
2018-09-24T05:25:14.426Z,78.57
2018-09-24T05:26:14.254Z,78.48
2018-09-24T05:27:14.313Z,78.5
2018-09-24T05:28:14.517Z,78.32
2018-09-24T05:29:14.472Z,78.5
2018-09-24T05:30:14.362Z,78.74
2018-09-24T05:31:14.362Z,78.72
2018-09-24T05:32:14.878Z,78.6
2018-09-24T05:33:14.410Z,78.61
2018-09-24T05:34:14.620Z,78.58
2018-09-24T05:35:14.191Z,78.31
2018-09-24T05:36:14.164Z,78.52
2018-09-24T05:37:14.716Z,78.47
2018-09-24T05:38:14.180Z,78.32
2018-09-24T05:39:14.331Z,78.65
2018-09-24T05:40:14.311Z,78.58
2018-09-24T05:41:14.731Z,78.55
2018-09-24T05:42:14.371Z,78.6
2018-09-24T05:43:14.216Z,78.78
2018-09-24T05:44:14.284Z,78.84
2018-09-24T05:45:14.191Z,78.65
2018-09-24T05:46:14.707Z,78.45
2018-09-24T05:47:14.345Z,78.54
2018-09-24T05:48:14.152Z,78.58
2018-09-24T05:49:14.355Z,78.75
2018-09-24T05:50:14.427Z,78.88
2018-09-24T05:51:14.264Z,78.91
2018-09-24T05:52:14.302Z,78.87
2018-09-24T05:53:14.615Z,78.98
2018-09-24T05:54:14.556Z,79.03
2018-09-24T05:55:14.324Z,79.15
2018-09-24T05:56:14.433Z,79.16
2018-09-24T05:57:14.132Z,79.22
2018-09-24T05:58:14.713Z,79.36
2018-09-24T05:59:14.353Z,79.68
2018-09-24T06:00:14.359Z,79.75
2018-09-24T06:01:14.117Z,79.77
2018-09-24T06:02:14.407Z,79.5
2018-09-24T06:03:14.190Z,79.64
2018-09-24T06:04:14.121Z,79.89
2018-09-24T06:05:14.296Z,79.71
2018-09-24T06:06:14.133Z,79.55
2018-09-24T06:07:14.098Z,79.85
2018-09-24T06:08:14.349Z,79.6
2018-09-24T06:09:14.283Z,79.77
2018-09-24T06:10:14.261Z,79.72
2018-09-24T06:11:14.100Z,79.77
2018-09-24T06:12:14.185Z,79.77
2018-09-24T06:13:14.232Z,79.62
2018-09-24T06:14:14.254Z,79.8
2018-09-24T06:15:14.115Z,79.93
2018-09-24T06:16:14.137Z,79.9
2018-09-24T06:17:14.305Z,79.76
2018-09-24T06:18:14.267Z,79.93
2018-09-24T06:19:14.274Z,79.77
2018-09-24T06:20:14.260Z,79.58
2018-09-24T06:21:14.235Z,79.99
2018-09-24T06:22:14.272Z,79.91
2018-09-24T06:23:14.262Z,79.98
2018-09-24T06:24:14.175Z,79.73
2018-09-24T06:25:14.533Z,80.09
2018-09-24T06:26:14.313Z,80.24
2018-09-24T06:27:14.297Z,79.51
2018-09-24T06:28:14.367Z,79.36
2018-09-24T06:29:14.281Z,79.98
2018-09-24T06:30:14.282Z,79.68
2018-09-24T06:31:14.345Z,79.96
2018-09-24T06:32:14.200Z,79.93
2018-09-24T06:33:14.251Z,79.77
2018-09-24T06:34:14.543Z,79.84
2018-09-24T06:35:14.283Z,79.64
2018-09-24T06:36:14.108Z,79.53
2018-09-24T06:37:14.244Z,79.68
2018-09-24T06:38:14.252Z,79.5
2018-09-24T06:39:14.432Z,79.52
2018-09-24T06:40:14.267Z,79.47
2018-09-24T06:41:14.433Z,79.63
2018-09-24T06:42:14.196Z,79.44
2018-09-24T06:43:14.184Z,79.41
2018-09-24T06:44:14.368Z,79.39
2018-09-24T06:45:14.293Z,79.19
2018-09-24T06:46:14.210Z,79.19
2018-09-24T06:47:14.293Z,79.07
2018-09-24T06:48:14.321Z,79.03
2018-09-24T06:49:14.223Z,79.04
2018-09-24T06:50:14.239Z,79.06
2018-09-24T06:51:14.223Z,78.81
2018-09-24T06:52:14.222Z,78.57
2018-09-24T06:53:14.269Z,78.91
2018-09-24T06:54:14.271Z,78.37
2018-09-24T06:55:14.332Z,78.31
2018-09-24T06:56:14.330Z,78.57
2018-09-24T06:57:14.193Z,78.61
2018-09-24T06:58:14.117Z,77.79
2018-09-24T06:59:14.102Z,77.86
2018-09-24T07:00:14.223Z,77.21
2018-09-24T07:01:14.399Z,77.21
2018-09-24T07:02:14.128Z,77.19
2018-09-24T07:03:14.115Z,77.18
2018-09-24T07:04:14.240Z,76.94
2018-09-24T07:05:14.170Z,77.16
2018-09-24T07:06:14.221Z,77.34
2018-09-24T07:07:14.274Z,76.71
2018-09-24T07:08:14.323Z,76.43
2018-09-24T07:09:14.209Z,76.76
2018-09-24T07:10:14.191Z,76.64
2018-09-24T07:11:14.359Z,76.49
2018-09-24T07:12:14.262Z,76.83
2018-09-24T07:13:16.726Z,77.01
2018-09-24T07:14:14.462Z,76.48
2018-09-24T07:15:14.183Z,76.23
2018-09-24T07:16:14.350Z,76.11
2018-09-24T07:17:14.193Z,76.54
2018-09-24T07:18:14.210Z,76.81
2018-09-24T07:19:14.239Z,76.72
2018-09-24T07:20:14.356Z,76.25
2018-09-24T07:21:14.155Z,76.76
2018-09-24T07:22:14.323Z,76.59
2018-09-24T07:23:14.192Z,76.14
2018-09-24T07:24:14.106Z,75.83
2018-09-24T07:25:14.352Z,75.81
2018-09-24T07:26:14.087Z,75.38
2018-09-24T07:27:14.240Z,75.74
2018-09-24T07:28:14.455Z,75.65
2018-09-24T07:29:14.240Z,75.31
2018-09-24T07:30:14.205Z,75.34
2018-09-24T07:31:14.160Z,75.08
2018-09-24T07:32:14.197Z,75.14
2018-09-24T07:33:14.560Z,75.82
2018-09-24T07:34:14.150Z,74.98
2018-09-24T07:35:14.286Z,75.05
2018-09-24T07:36:14.048Z,74.49
2018-09-24T07:37:14.154Z,73.87
2018-09-24T07:38:14.033Z,74.53
2018-09-24T07:39:14.181Z,73.67
2018-09-24T07:40:14.252Z,73.95
2018-09-24T07:41:14.135Z,73.69
2018-09-24T07:42:14.163Z,73.73
2018-09-24T07:43:14.802Z,73.76
2018-09-24T07:44:14.195Z,73.4
2018-09-24T07:45:14.019Z,73.65
2018-09-24T07:46:14.139Z,73.89
2018-09-24T07:47:14.186Z,73.57
2018-09-24T07:48:14.031Z,73.8
2018-09-24T07:49:14.169Z,73.87
2018-09-24T07:50:14.081Z,73.23
2018-09-24T07:51:14.195Z,72.86
2018-09-24T07:52:14.070Z,72.63
2018-09-24T07:53:14.197Z,72.57
2018-09-24T07:54:14.205Z,72.19
2018-09-24T07:55:14.168Z,71.85
2018-09-24T07:56:14.265Z,71.49
2018-09-24T07:57:14.133Z,71.35
2018-09-24T07:58:14.166Z,71.56
2018-09-24T07:59:14.145Z,71.68
2018-09-24T08:00:14.044Z,71.51
2018-09-24T08:01:14.048Z,70.79
2018-09-24T08:02:14.179Z,71.18
2018-09-24T08:03:13.960Z,71.42
2018-09-24T08:04:14.077Z,70.94
2018-09-24T08:05:14.121Z,70.98
2018-09-24T08:06:14.350Z,71.63
2018-09-24T08:07:14.576Z,71.56
2018-09-24T08:08:14.254Z,71.51
2018-09-24T08:09:14.084Z,71.79
2018-09-24T08:10:14.281Z,71.58
2018-09-24T08:11:14.355Z,71.76
2018-09-24T08:12:14.570Z,71.87
2018-09-24T08:13:14.400Z,71.9
2018-09-24T08:14:14.555Z,71.24
2018-09-24T08:15:13.945Z,71.51
2018-09-24T08:16:14.380Z,71.59
2018-09-24T08:17:14.059Z,71.21
2018-09-24T08:18:14.482Z,71.44
2018-09-24T08:19:14.117Z,71.12
2018-09-24T08:20:14.112Z,70.88
2018-09-24T08:21:14.428Z,71.39
2018-09-24T08:22:14.026Z,71.43
2018-09-24T08:23:14.188Z,70.42
2018-09-24T08:24:14.232Z,71.06
2018-09-24T08:25:14.076Z,71.42
2018-09-24T08:26:14.516Z,71.28
2018-09-24T08:27:14.220Z,70.52
2018-09-24T08:28:14.034Z,69.64
2018-09-24T08:29:14.089Z,69.86
2018-09-24T08:30:14.123Z,69.89
2018-09-24T08:31:14.090Z,69.8
2018-09-24T08:32:14.130Z,69.24
2018-09-24T08:33:14.156Z,70.09
2018-09-24T08:34:14.119Z,69.65
2018-09-24T08:35:13.982Z,69.87
2018-09-24T08:36:14.433Z,69.99
2018-09-24T08:37:13.915Z,70.02
2018-09-24T08:38:14.239Z,69.47
2018-09-24T08:39:14.156Z,68.24
2018-09-24T08:40:14.079Z,68.75
2018-09-24T08:41:14.221Z,69.12
2018-09-24T08:42:14.058Z,69.01
2018-09-24T08:43:14.100Z,68.01
2018-09-24T08:44:14.604Z,68.77
2018-09-24T08:45:14.271Z,69.74
2018-09-24T08:46:14.078Z,68.72
2018-09-24T08:47:14.262Z,67.68
2018-09-24T08:48:14.088Z,67.69
2018-09-24T08:49:14.250Z,67.38
2018-09-24T08:50:14.119Z,67.5
2018-09-24T08:51:14.082Z,68.16
2018-09-24T08:52:14.116Z,67.58
2018-09-24T08:53:14.210Z,67.38
2018-09-24T08:54:13.936Z,67.17
2018-09-24T08:55:14.086Z,67.82
2018-09-24T08:56:14.100Z,66.99
2018-09-24T08:57:14.380Z,66.19
2018-09-24T08:58:13.878Z,66.88
2018-09-24T08:59:14.051Z,66.54
2018-09-24T09:00:13.954Z,66.85
2018-09-24T09:01:14.045Z,67.18
2018-09-24T09:02:14.148Z,66.68
2018-09-24T09:03:14.059Z,66.14
2018-09-24T09:04:14.248Z,65.85
2018-09-24T09:05:14.027Z,66.41
2018-09-24T09:06:14.039Z,67
2018-09-24T09:07:14.220Z,66.36
2018-09-24T09:08:14.271Z,67.26
2018-09-24T09:09:14.059Z,66.48
2018-09-24T09:10:14.135Z,66.43
2018-09-24T09:11:14.091Z,66.52
2018-09-24T09:12:14.025Z,66.21
2018-09-24T09:13:14.124Z,65.49
2018-09-24T09:14:13.970Z,65.65
2018-09-24T09:15:13.900Z,65.54
2018-09-24T09:16:14.207Z,65.77
2018-09-24T09:17:13.843Z,66.19
2018-09-24T09:18:14.174Z,66.63
2018-09-24T09:19:14.176Z,66.76
2018-09-24T09:20:14.186Z,67.16
2018-09-24T09:21:14.074Z,66.8
2018-09-24T09:22:14.062Z,67.07
2018-09-24T09:23:14.013Z,67.58
2018-09-24T09:24:13.977Z,68.39
2018-09-24T09:25:14.064Z,67.93
2018-09-24T09:26:14.283Z,68.17
2018-09-24T09:27:13.855Z,68.48
2018-09-24T09:28:14.068Z,68.4
2018-09-24T09:29:14.380Z,67.61
2018-09-24T09:30:13.862Z,67.62
2018-09-24T09:31:13.985Z,67.4
2018-09-24T09:32:14.080Z,66.18
2018-09-24T09:33:14.099Z,66.46
2018-09-24T09:34:14.023Z,66.59
2018-09-24T09:35:14.410Z,66.41
2018-09-24T09:36:14.085Z,65.89
2018-09-24T09:37:14.085Z,66.98
2018-09-24T09:38:14.136Z,66.43
2018-09-24T09:39:13.829Z,65.19
2018-09-24T09:40:13.987Z,64.25
2018-09-24T09:41:14.712Z,62.37
2018-09-24T09:42:14.063Z,60.7
2018-09-24T09:43:14.069Z,60.32
2018-09-24T09:44:14.003Z,60.41
2018-09-24T09:45:14.119Z,60
2018-09-24T09:46:14.026Z,61.67
2018-09-24T09:47:13.993Z,60.66
2018-09-24T09:48:14.169Z,61.43
2018-09-24T09:49:13.847Z,59.93
2018-09-24T09:50:14.086Z,60.68
2018-09-24T09:51:14.261Z,60.3
2018-09-24T09:52:13.841Z,61.07
2018-09-24T09:53:14.005Z,59.96
2018-09-24T09:54:13.842Z,61.24
2018-09-24T09:55:14.036Z,61.53
2018-09-24T09:56:14.126Z,60.29
2018-09-24T09:57:14.019Z,60.31
2018-09-24T09:58:14.101Z,60.07
2018-09-24T09:59:14.541Z,59.84
2018-09-24T10:00:13.881Z,59.97
2018-09-24T10:01:13.788Z,59.52
2018-09-24T10:02:14.067Z,59.75
2018-09-24T10:03:14.127Z,58.49
2018-09-24T10:04:13.933Z,60
2018-09-24T10:05:13.821Z,59.28
2018-09-24T10:06:13.853Z,59.73
2018-09-24T10:07:14.308Z,60.05
2018-09-24T10:08:13.783Z,61.13
2018-09-24T10:09:14.150Z,61.36
2018-09-24T10:10:14.083Z,59.17
2018-09-24T10:11:14.515Z,57.73
2018-09-24T10:12:14.063Z,57.79
2018-09-24T10:13:13.759Z,58.47
2018-09-24T10:14:14.110Z,58.48
2018-09-24T10:15:14.036Z,58.74
2018-09-24T10:16:13.851Z,58.98
2018-09-24T10:17:13.977Z,59.63
2018-09-24T10:18:13.781Z,59.65
2018-09-24T10:19:14.016Z,60.87
2018-09-24T10:20:13.921Z,60.98
2018-09-24T10:21:13.958Z,60.39
2018-09-24T10:22:14.071Z,61.32
2018-09-24T10:23:14.032Z,60.27
2018-09-24T10:24:14.259Z,60.26
2018-09-24T10:25:13.956Z,60.59
2018-09-24T10:26:14.159Z,60.67
2018-09-24T10:27:13.753Z,60.27
2018-09-24T10:28:14.012Z,60.29
2018-09-24T10:29:21.108Z,58.92
2018-09-24T10:30:14.216Z,59.73
2018-09-24T10:31:13.800Z,59.57
2018-09-24T10:32:15.542Z,58.65
2018-09-24T10:33:13.911Z,58.44
2018-09-24T10:34:15.386Z,58.17
2018-09-24T10:35:15.623Z,57.47
2018-09-24T10:36:13.748Z,58.6
2018-09-24T10:37:15.259Z,58.34
2018-09-24T10:38:14.040Z,57.63
2018-09-24T10:39:13.739Z,56.82
2018-09-24T10:40:13.775Z,57.22
2018-09-24T10:41:13.757Z,57.76
2018-09-24T10:42:13.701Z,57.52
2018-09-24T10:43:13.865Z,57.25
2018-09-24T10:44:13.758Z,57.86
2018-09-24T10:45:13.790Z,57.1
2018-09-24T10:46:14.074Z,57.03
2018-09-24T10:47:13.724Z,55.94
2018-09-24T10:48:13.911Z,56.1
2018-09-24T10:49:13.717Z,55.03
2018-09-24T10:50:14.127Z,55.47
2018-09-24T10:51:14.117Z,53.18
2018-09-24T10:52:13.872Z,53.42
2018-09-24T10:53:13.948Z,53.39
2018-09-24T10:54:13.812Z,52.62
2018-09-24T10:55:13.883Z,53.81
2018-09-24T10:56:13.856Z,53.32
2018-09-24T10:57:13.929Z,52.87
2018-09-24T10:58:13.847Z,52
2018-09-24T10:59:14.073Z,51.83
2018-09-24T11:00:13.994Z,53.13
2018-09-24T11:01:14.200Z,52.52
2018-09-24T11:02:13.863Z,53.01
2018-09-24T11:03:14.187Z,53.02
2018-09-24T11:04:13.885Z,54.05
2018-09-24T11:05:13.781Z,53.85
2018-09-24T11:06:14.228Z,54.56
2018-09-24T11:07:13.866Z,53.47
2018-09-24T11:08:13.801Z,54.12
2018-09-24T11:09:13.888Z,52.96
2018-09-24T11:10:14.529Z,52.76
2018-09-24T11:11:13.880Z,54.19
2018-09-24T11:12:13.697Z,53.84
2018-09-24T11:13:13.873Z,54.07
2018-09-24T11:14:14.053Z,53.79
2018-09-24T11:15:14.087Z,53.11
2018-09-24T11:16:15.184Z,53.16
2018-09-24T11:17:16.348Z,53.26
2018-09-24T11:18:14.189Z,52.21
2018-09-24T11:19:13.879Z,53.5
2018-09-24T11:20:13.795Z,52.81
2018-09-24T11:21:14.026Z,51.6
2018-09-24T11:22:13.923Z,52.03
2018-09-24T11:23:13.809Z,51.29
2018-09-24T11:24:14.127Z,50.83
2018-09-24T11:25:14.127Z,50.71
2018-09-24T11:27:13.818Z,51.34
2018-09-24T11:28:14.266Z,51.74
2018-09-24T11:29:14.117Z,51.33
2018-09-24T11:30:14.175Z,52.17
2018-09-24T11:31:13.856Z,52.12
2018-09-24T11:32:14.281Z,50.88
2018-09-24T11:33:14.073Z,51.72
2018-09-24T11:34:14.400Z,51.2
2018-09-24T11:35:13.891Z,51.69
2018-09-24T11:36:14.008Z,51.48
2018-09-24T11:37:13.631Z,51.98
2018-09-24T11:38:13.938Z,51.02
2018-09-24T11:39:14.150Z,51.18
2018-09-24T11:40:14.029Z,50.52
2018-09-24T11:41:13.924Z,50.64
2018-09-24T11:42:14.238Z,50
2018-09-24T11:43:14.161Z,50.15
2018-09-24T11:44:13.950Z,50.1
2018-09-24T11:45:13.951Z,49.97
2018-09-24T11:46:13.988Z,50.32
2018-09-24T11:47:14.161Z,50.13
2018-09-24T11:48:14.287Z,50.69
2018-09-24T11:49:14.000Z,50.03
2018-09-24T11:50:13.786Z,51.45
2018-09-24T11:51:14.001Z,50.92
2018-09-24T11:52:14.016Z,52.25
2018-09-24T11:53:13.805Z,50.64
2018-09-24T11:54:13.913Z,50.48
2018-09-24T11:55:13.817Z,50.56
2018-09-24T11:56:14.224Z,50.1
2018-09-24T11:57:14.175Z,48.61
2018-09-24T11:58:13.838Z,48.64
2018-09-24T11:59:13.848Z,49.06
2018-09-24T12:00:13.873Z,49.02
2018-09-24T12:01:13.859Z,48.33
2018-09-24T12:02:14.086Z,49.02
2018-09-24T12:03:14.188Z,50.03
2018-09-24T12:04:13.799Z,49.71
2018-09-24T12:05:13.896Z,49.57
2018-09-24T12:06:14.124Z,49.82
2018-09-24T12:07:13.806Z,49.59
2018-09-24T12:08:13.913Z,48.68
2018-09-24T12:09:13.917Z,45.98
2018-09-24T12:10:14.301Z,47.37
2018-09-24T12:11:16.821Z,47.05
2018-09-24T12:12:13.905Z,46.24
2018-09-24T12:13:13.949Z,46.43
2018-09-24T12:14:13.970Z,46.41
2018-09-24T12:16:13.636Z,46.6
2018-09-24T12:17:13.892Z,46.38
2018-09-24T12:18:13.997Z,46.97
2018-09-24T12:19:13.913Z,45.47
2018-09-24T12:20:13.969Z,45.61
2018-09-24T12:21:13.825Z,45.28
2018-09-24T12:22:13.599Z,46.35
2018-09-24T12:23:14.760Z,45.41
2018-09-24T12:24:14.115Z,45.5
2018-09-24T12:25:13.958Z,45.1
2018-09-24T12:26:15.178Z,45.48
2018-09-24T12:27:14.269Z,46.23
2018-09-24T12:28:14.271Z,46.27
2018-09-24T12:29:14.991Z,44.72
2018-09-24T12:30:13.784Z,45.22
2018-09-24T12:31:13.889Z,45.04
2018-09-24T12:32:13.790Z,45.65
2018-09-24T12:33:13.770Z,45.02
2018-09-24T12:34:13.903Z,44.03
2018-09-24T12:35:13.985Z,44.27
2018-09-24T12:36:13.919Z,45.18
2018-09-24T12:37:13.812Z,45.71
2018-09-24T12:38:14.035Z,45.72
2018-09-24T12:39:14.131Z,44.82
2018-09-24T12:40:13.856Z,44.97
2018-09-24T12:41:13.831Z,43.5
2018-09-24T12:42:13.835Z,41.54
2018-09-24T12:43:13.946Z,41.51
2018-09-24T12:44:13.952Z,42.94
2018-09-24T12:45:13.755Z,43
2018-09-24T12:46:13.884Z,43.86
2018-09-24T12:47:13.665Z,43.27
2018-09-24T12:48:14.116Z,43.83
2018-09-24T12:49:13.802Z,44.21
2018-09-24T12:50:13.722Z,45.19
2018-09-24T12:51:13.915Z,43.76
2018-09-24T12:52:13.948Z,44.52
2018-09-24T12:53:14.026Z,45.04
2018-09-24T12:54:14.228Z,44.28
2018-09-24T12:55:13.855Z,44.32
2018-09-24T12:56:13.854Z,43.87
2018-09-24T12:57:13.764Z,44.14